Time;durP1;ratioP1;P1;durP2;ratioP2;P2;SDS_P1;SDS_P2;PMS_P1;PMS_P2;Temp;Humidity;BMP_temperature;BMP_pressure;BME280_temperature;BME280_humidity;BME280_pressure;Samples;Min_cycle;Max_cycle;Signal;HPM_P1;HPM_P2
2021/04/28 00:00:35;;;;;;;2.20;2.00;;;;;;;8.96;43.01;101114.19;6139097;28;20235;-50
2021/04/28 00:03:55;;;;;;;2.67;1.77;;;;;;;8.91;42.77;101106.34;6142462;28;20539;-52
2021/04/28 00:07:16;;;;;;;3.73;2.13;;;;;;;8.64;42.81;101104.53;6141745;28;20318;-51
2021/04/28 00:10:40;;;;;;;3.13;1.80;;;;;;;8.85;42.78;101107.19;6140748;28;20239;-52
2021/04/28 00:14:02;;;;;;;2.30;2.10;;;;;;;8.63;43.39;101103.69;6142794;28;20231;-54
2021/04/28 00:17:23;;;;;;;3.10;2.53;;;;;;;8.73;42.86;101098.53;6143354;28;20227;-57
2021/04/28 00:20:44;;;;;;;2.83;2.37;;;;;;;8.72;43.02;101099.38;6140101;28;20239;-52
2021/04/28 00:24:05;;;;;;;2.13;1.73;;;;;;;8.86;42.71;101098.56;6138557;28;20238;-50
2021/04/28 00:27:26;;;;;;;2.77;2.57;;;;;;;8.52;43.54;101100.19;6117870;28;20231;-49
2021/04/28 00:30:46;;;;;;;2.37;2.17;;;;;;;8.50;43.75;101096.72;6134212;28;20246;-53
2021/04/28 00:34:07;;;;;;;2.73;2.27;;;;;;;8.42;43.78;101086.28;6134298;28;20361;-49
2021/04/28 00:37:28;;;;;;;3.13;2.20;;;;;;;8.35;43.97;101086.22;6136889;28;20304;-54
2021/04/28 00:40:49;;;;;;;2.93;1.60;;;;;;;8.53;43.57;101088.94;6134688;28;20612;-54
2021/04/28 00:44:10;;;;;;;3.23;2.07;;;;;;;8.50;43.38;101088.91;6140526;28;20235;-51
2021/04/28 00:47:31;;;;;;;4.60;2.80;;;;;;;8.27;43.91;101086.19;6128774;28;20568;-54
2021/04/28 00:50:53;;;;;;;2.60;1.67;;;;;;;8.35;43.97;101081.91;6140175;28;20266;-54
2021/04/28 00:54:13;;;;;;;3.17;2.37;;;;;;;8.44;43.13;101076.78;6131588;28;20227;-53
2021/04/28 00:57:34;;;;;;;3.20;2.30;;;;;;;8.20;44.85;101081.81;6139451;28;20238;-54
2021/04/28 01:00:56;;;;;;;2.00;1.77;;;;;;;8.12;44.37;101078.34;6139875;28;20743;-57
2021/04/28 01:04:17;;;;;;;1.90;1.80;;;;;;;8.25;44.38;101070.59;6144383;28;20227;-48
2021/04/28 01:07:39;;;;;;;1.47;1.30;;;;;;;8.14;44.48;101071.41;6151607;28;20310;-51
2021/04/28 01:11:03;;;;;;;2.03;1.80;;;;;;;8.25;44.17;101072.34;6154258;28;20263;-48
2021/04/28 01:14:25;;;;;;;2.40;2.20;;;;;;;8.07;44.87;101066.22;6137397;28;20729;-50
2021/04/28 01:17:46;;;;;;;2.43;2.23;;;;;;;8.24;44.09;101058.50;6131160;28;20652;-55
2021/04/28 01:21:07;;;;;;;4.00;2.10;;;;;;;8.26;44.20;101064.56;6148862;28;20224;-52
2021/04/28 01:24:29;;;;;;;2.43;2.07;;;;;;;8.07;44.40;101055.84;6139602;28;20694;-52
2021/04/28 01:27:55;;;;;;;3.50;2.13;;;;;;;8.05;44.23;101057.56;6112229;28;20231;-56
2021/04/28 01:31:18;;;;;;;2.30;2.07;;;;;;;8.01;44.04;101055.81;6138258;28;20229;-52
2021/04/28 01:34:41;;;;;;;3.83;2.77;;;;;;;7.84;45.13;101047.06;6139059;28;20246;-54
2021/04/28 01:38:05;;;;;;;2.10;2.00;;;;;;;7.82;45.04;101043.59;6146888;28;20321;-55
2021/04/28 01:41:28;;;;;;;2.43;2.07;;;;;;;8.03;44.33;101042.84;6121882;28;20330;-53
2021/04/28 01:44:52;;;;;;;6.70;2.20;;;;;;;7.81;45.19;101036.66;6152182;28;20239;-52
2021/04/28 01:48:12;;;;;;;2.90;1.50;;;;;;;7.72;45.40;101032.31;6136199;28;20318;-53
2021/04/28 01:51:36;;;;;;;3.37;2.00;;;;;;;7.79;44.96;101030.59;6153895;28;20632;-54
2021/04/28 01:54:57;;;;;;;1.50;1.40;;;;;;;7.92;44.53;101034.16;6149707;28;20238;-50
2021/04/28 01:58:19;;;;;;;2.80;1.77;;;;;;;7.69;45.29;101030.53;6138511;28;20629;-53
2021/04/28 02:01:44;;;;;;;2.13;1.50;;;;;;;7.44;46.20;101026.06;6127038;28;20227;-54
2021/04/28 02:05:05;;;;;;;1.97;1.77;;;;;;;7.59;45.80;101028.75;6146413;28;20247;-53
2021/04/28 02:08:28;;;;;;;3.87;2.27;;;;;;;7.46;46.11;101024.34;6140351;28;20239;-51
2021/04/28 02:11:48;;;;;;;4.37;2.13;;;;;;;7.58;45.59;101032.22;6139555;28;20239;-54
2021/04/28 02:15:12;;;;;;;2.40;2.20;;;;;;;7.23;46.42;101019.00;6124904;28;20239;-55
2021/04/28 02:18:43;;;;;;;3.93;2.33;;;;;;;7.39;45.44;101015.66;6139764;28;20348;-57
2021/04/28 02:22:04;;;;;;;2.40;2.20;;;;;;;7.64;44.81;101023.63;6113925;28;20584;-53
2021/04/28 02:25:40;;;;;;;3.07;2.17;;;;;;;7.37;45.91;101014.78;6138353;28;20234;-51
2021/04/28 02:29:04;;;;;;;2.77;2.20;;;;;;;7.30;46.40;101013.00;6127861;28;20239;-52
2021/04/28 02:32:27;;;;;;;4.87;2.20;;;;;;;7.18;46.52;101003.41;6138011;28;20693;-52
2021/04/28 02:36:26;;;;;;;2.50;2.30;;;;;;;7.26;46.37;101009.53;6140001;28;20487;-51
2021/04/28 02:40:07;;;;;;;3.73;1.93;;;;;;;7.25;46.51;101010.38;6135881;28;20234;-55
2021/04/28 02:43:29;;;;;;;3.63;2.57;;;;;;;7.28;46.39;101005.22;6126758;28;20230;-52
2021/04/28 02:46:59;;;;;;;2.43;2.23;;;;;;;7.13;46.60;100999.91;6128727;28;20226;-51
2021/04/28 02:50:23;;;;;;;2.37;2.10;;;;;;;7.09;46.67;100998.16;6135811;28;20245;-54
2021/04/28 02:54:05;;;;;;;2.93;2.10;;;;;;;7.18;46.40;100987.88;6150598;28;20235;-54
2021/04/28 02:57:28;;;;;;;2.63;1.93;;;;;;;7.09;46.60;100992.97;6136575;28;20644;-53
2021/04/28 03:00:49;;;;;;;2.37;1.60;;;;;;;7.12;46.66;100987.84;6140541;28;20231;-51
2021/04/28 03:04:10;;;;;;;2.33;2.07;;;;;;;7.16;46.39;100997.38;6121403;28;552004;-54
2021/04/28 03:07:52;;;;;;;3.37;2.10;;;;;;;6.97;47.01;100998.06;6135848;28;20239;-53
2021/04/28 03:11:14;;;;;;;2.37;2.17;;;;;;;7.08;46.51;100994.72;6140690;28;20490;-55
2021/04/28 03:14:34;;;;;;;3.17;2.50;;;;;;;6.95;46.81;100994.59;6142095;28;20234;-56
2021/04/28 03:17:56;;;;;;;3.47;2.23;;;;;;;6.83;47.37;100991.03;6155749;28;21122;-51
2021/04/28 03:21:24;;;;;;;3.23;2.10;;;;;;;7.04;46.38;100989.50;6141897;28;20234;-53
2021/04/28 03:24:46;;;;;;;1.93;1.83;;;;;;;6.95;46.70;100979.06;6140596;28;20361;-53
2021/04/28 03:28:06;;;;;;;2.97;2.33;;;;;;;6.96;46.70;100975.59;6142408;28;20227;-50
2021/04/28 03:31:27;;;;;;;2.80;2.57;;;;;;;6.87;46.92;100984.19;6142275;28;20239;-54
2021/04/28 03:34:48;;;;;;;2.17;2.00;;;;;;;6.88;47.15;100973.84;6148316;28;20243;-53
2021/04/28 03:38:08;;;;;;;2.87;2.67;;;;;;;6.95;46.67;100969.56;6139983;28;20254;-52
2021/04/28 03:41:30;;;;;;;2.57;2.37;;;;;;;6.72;46.99;100977.13;6152141;28;20330;-55
2021/04/28 03:44:52;;;;;;;4.30;2.33;;;;;;;6.81;46.88;100959.09;6140268;28;20235;-55
2021/04/28 03:48:13;;;;;;;2.47;2.10;;;;;;;6.65;47.48;100975.31;6141696;28;20231;-54
2021/04/28 03:51:34;;;;;;;5.40;2.67;;;;;;;6.76;47.17;100978.88;6144702;28;20238;-52
2021/04/28 03:55:00;;;;;;;4.03;2.63;;;;;;;6.85;48.08;100968.63;6148443;28;20239;-52
2021/04/28 03:58:21;;;;;;;3.27;2.73;;;;;;;6.92;47.46;100966.09;6155599;28;20307;-52
2021/04/28 04:01:46;;;;;;;5.50;2.93;;;;;;;6.93;47.21;100965.25;6137031;28;20227;-53
2021/04/28 04:05:10;;;;;;;7.73;6.93;;;;;;;7.00;47.14;100961.81;6138708;28;20246;-56
2021/04/28 04:08:41;;;;;;;9.13;8.20;;;;;;;6.82;47.11;100960.81;6145253;28;20226;-53
2021/04/28 04:12:02;;;;;;;4.77;3.47;;;;;;;6.86;46.40;100965.19;6133305;28;20250;-51
2021/04/28 04:15:31;;;;;;;4.70;3.17;;;;;;;6.73;46.86;100971.13;6127593;28;20507;-52
2021/04/28 04:18:52;;;;;;;3.07;2.77;;;;;;;6.74;46.84;100965.06;6127091;28;20255;-53
2021/04/28 04:22:14;;;;;;;3.00;2.70;;;;;;;6.56;47.20;100959.72;6135174;28;20310;-48
2021/04/28 04:25:41;;;;;;;3.97;2.87;;;;;;;6.69;46.58;100961.59;6154587;28;20228;-50
2021/04/28 04:29:07;;;;;;;3.37;3.13;;;;;;;6.85;45.99;100960.84;6131091;28;20239;-50
2021/04/28 04:32:50;;;;;;;3.27;2.97;;;;;;;6.85;46.26;100966.03;6140317;28;20613;-49
2021/04/28 04:36:29;;;;;;;8.50;7.70;;;;;;;7.07;46.41;100956.69;6133170;28;20243;-51
2021/04/28 04:40:08;;;;;;;10.37;8.53;;;;;;;7.04;46.43;100964.47;6141294;28;20235;-54
2021/04/28 04:43:45;;;;;;;9.87;8.97;;;;;;;7.27;45.61;100972.41;6141718;28;20231;-53
2021/04/28 04:47:15;;;;;;;5.73;4.67;;;;;;;7.24;45.09;100967.19;6141152;28;20234;-55
2021/04/28 04:50:37;;;;;;;3.23;2.93;;;;;;;7.07;45.16;100958.44;6140202;28;20585;-50
2021/04/28 04:53:58;;;;;;;5.03;3.13;;;;;;;7.21;44.65;100956.84;6141955;28;20275;-53
2021/04/28 04:57:18;;;;;;;5.07;3.50;;;;;;;7.00;45.46;100954.06;6149621;28;20230;-52
2021/04/28 05:00:39;;;;;;;3.70;3.40;;;;;;;7.14;45.43;100955.03;6140816;28;20255;-55
2021/04/28 05:03:59;;;;;;;6.63;4.30;;;;;;;7.25;45.31;100957.69;6141586;28;20917;-50
2021/04/28 05:07:20;;;;;;;4.17;3.80;;;;;;;7.16;45.25;100950.75;6138450;28;20552;-53
2021/04/28 05:10:41;;;;;;;3.70;3.33;;;;;;;7.55;44.10;100961.34;6147231;28;20223;-52
2021/04/28 05:14:02;;;;;;;4.63;3.30;;;;;;;7.48;44.23;100950.97;6137701;28;20227;-55
2021/04/28 05:17:23;;;;;;;3.93;3.60;;;;;;;7.57;43.98;100944.94;6135744;28;20235;-52
2021/04/28 05:20:43;;;;;;;4.53;4.13;;;;;;;7.57;43.96;100944.94;6136417;28;20318;-50
2021/04/28 05:24:06;;;;;;;5.30;3.33;;;;;;;7.73;43.48;100951.06;6140725;28;20239;-53
2021/04/28 05:27:45;;;;;;;4.73;4.30;;;;;;;8.02;42.90;100940.81;6146244;28;20518;-55
2021/04/28 05:31:05;;;;;;;4.43;3.93;;;;;;;7.97;43.13;100939.06;6140413;28;20827;-53
2021/04/28 05:34:26;;;;;;;5.13;3.27;;;;;;;8.05;42.36;100937.38;6140585;28;20234;-54
2021/04/28 05:37:46;;;;;;;6.50;4.17;;;;;;;8.14;42.75;100937.38;6127662;28;20609;-53
2021/04/28 05:41:08;;;;;;;3.83;3.40;;;;;;;8.23;42.55;100936.56;6135859;28;20668;-54
2021/04/28 05:44:28;;;;;;;4.03;3.53;;;;;;;8.28;42.12;100934.84;6138198;28;20284;-50
2021/04/28 05:47:49;;;;;;;4.77;3.70;;;;;;;8.43;41.72;100936.63;6132392;28;20514;-49
2021/04/28 05:51:10;;;;;;;3.60;3.27;;;;;;;8.55;41.03;100935.78;6126702;28;20230;-53
2021/04/28 05:54:30;;;;;;;4.73;3.67;;;;;;;8.65;40.50;100938.38;6137896;28;20243;-49
2021/04/28 05:57:51;;;;;;;4.63;4.07;;;;;;;8.97;39.98;100932.31;6130388;28;20223;-53
2021/04/28 06:01:11;;;;;;;4.03;3.67;;;;;;;9.25;39.41;100933.16;6132904;28;20235;-55
2021/04/28 06:04:32;;;;;;;4.63;3.60;;;;;;;9.22;39.44;100933.16;6137078;28;20239;-51
2021/04/28 06:07:52;;;;;;;4.70;4.20;;;;;;;9.21;38.68;100928.00;6127777;28;20751;-49
2021/04/28 06:11:13;;;;;;;5.70;3.60;;;;;;;9.47;38.60;100933.13;6135546;28;20231;-51
2021/04/28 06:14:35;;;;;;;3.87;3.57;;;;;;;9.54;38.32;100924.44;6135117;28;20243;-51
2021/04/28 06:17:55;;;;;;;5.50;4.03;;;;;;;9.70;37.82;100920.06;6148301;28;20249;-50
2021/04/28 06:21:16;;;;;;;4.93;4.47;;;;;;;9.67;37.70;100914.84;6127655;28;20254;-53
2021/04/28 06:24:37;;;;;;;5.87;3.57;;;;;;;9.76;37.88;100920.03;6130262;28;20232;-48
2021/04/28 06:27:58;;;;;;;5.07;4.50;;;;;;;9.95;36.93;100912.16;6138639;28;20239;-53
2021/04/28 06:31:19;;;;;;;5.73;4.23;;;;;;;10.39;36.14;100913.63;6136796;28;20231;-55
2021/04/28 06:34:40;;;;;;;7.03;4.73;;;;;;;10.37;35.91;100911.06;6139548;28;20617;-51
2021/04/28 06:38:01;;;;;;;5.70;4.73;;;;;;;10.41;35.56;100907.56;6139939;28;20235;-54
2021/04/28 06:41:22;;;;;;;4.63;3.90;;;;;;;10.72;35.14;100911.66;6138288;28;20243;-55
2021/04/28 06:44:43;;;;;;;7.53;5.17;;;;;;;10.68;35.90;100907.34;6128794;28;20372;-50
2021/04/28 06:48:06;;;;;;;5.57;4.93;;;;;;;10.55;35.23;100906.59;6136799;28;20227;-52
2021/04/28 06:51:27;;;;;;;4.80;4.40;;;;;;;11.37;43.54;100911.94;6138385;28;20230;-53
2021/04/28 06:54:47;;;;;;;4.80;4.40;;;;;;;12.56;46.44;100893.84;6132288;28;20262;-50
2021/04/28 06:58:08;;;;;;;6.07;4.30;;;;;;;12.42;38.97;100895.78;6140094;28;20254;-53
2021/04/28 07:01:28;;;;;;;5.17;4.67;;;;;;;11.70;32.93;100881.13;6127425;28;20239;-53
2021/04/28 07:04:49;;;;;;;5.77;4.93;;;;;;;11.72;32.71;100884.56;6124405;28;20227;-50
2021/04/28 07:08:10;;;;;;;6.23;4.67;;;;;;;11.57;32.89;100878.66;6133884;28;20589;-51
2021/04/28 07:11:30;;;;;;;5.53;5.13;;;;;;;11.68;32.54;100869.84;6138373;28;20243;-52
2021/04/28 07:14:51;;;;;;;5.93;4.23;;;;;;;11.71;32.29;100867.16;6133794;28;20873;-52
2021/04/28 07:18:11;;;;;;;5.33;4.83;;;;;;;12.06;32.21;100876.31;6132116;28;20247;-54
2021/04/28 07:21:33;;;;;;;5.47;5.00;;;;;;;11.86;31.64;100872.19;6142246;28;20617;-53
2021/04/28 07:24:54;;;;;;;5.30;4.77;;;;;;;12.39;32.71;100867.13;6135457;28;20231;-49
2021/04/28 07:28:14;;;;;;;7.63;4.33;;;;;;;12.43;33.44;100855.75;6138633;28;21343;-52
2021/04/28 07:31:35;;;;;;;5.80;4.80;;;;;;;12.09;32.53;100852.78;6141645;28;20255;-53
2021/04/28 07:34:55;;;;;;;8.03;5.47;;;;;;;12.41;31.09;100855.75;6142051;28;20325;-53
2021/04/28 07:38:17;;;;;;;7.40;5.43;;;;;;;12.26;31.58;100848.16;6140574;28;20231;-52
2021/04/28 07:41:37;;;;;;;5.20;4.80;;;;;;;12.41;31.63;100860.97;6139225;28;20442;-48
2021/04/28 07:44:58;;;;;;;6.57;5.03;;;;;;;12.86;31.25;100859.38;6137426;28;20250;-53
2021/04/28 07:48:19;;;;;;;4.87;4.47;;;;;;;12.68;32.06;100856.19;6136081;28;20239;-54
2021/04/28 07:51:39;;;;;;;7.10;4.63;;;;;;;12.71;31.75;100853.50;6141277;28;20498;-52
2021/04/28 07:55:01;;;;;;;5.23;4.73;;;;;;;13.01;37.18;100853.88;6136015;28;21891;-53
2021/04/28 07:58:21;;;;;;;5.07;4.67;;;;;;;13.41;32.42;100844.41;6134462;28;20602;-51
2021/04/28 08:01:42;;;;;;;4.50;4.10;;;;;;;13.59;34.14;100842.28;6136023;28;20851;-48
2021/04/28 08:05:03;;;;;;;5.60;4.97;;;;;;;13.86;32.62;100842.59;6132889;28;20444;-48
2021/04/28 08:08:24;;;;;;;5.70;5.20;;;;;;;13.78;32.08;100834.03;6143011;28;20247;-49
2021/04/28 08:11:45;;;;;;;5.57;4.80;;;;;;;13.66;31.46;100823.84;6130504;28;20235;-52
2021/04/28 08:15:07;;;;;;;6.30;4.73;;;;;;;13.70;31.15;100828.09;6137850;28;20243;-52
2021/04/28 08:18:27;;;;;;;6.70;4.73;;;;;;;13.75;29.75;100828.88;6136049;28;20235;-52
2021/04/28 08:21:48;;;;;;;5.67;5.17;;;;;;;13.76;29.83;100822.72;6137951;28;20508;-50
2021/04/28 08:25:11;;;;;;;5.53;5.03;;;;;;;13.65;29.85;100832.56;6138146;28;20312;-55
2021/04/28 08:28:34;;;;;;;6.10;5.50;;;;;;;13.66;28.86;100822.06;6138328;28;20250;-52
2021/04/28 08:31:55;;;;;;;6.13;5.37;;;;;;;13.84;28.85;100822.56;6130373;28;20227;-53
2021/04/28 08:35:16;;;;;;;6.00;5.03;;;;;;;14.34;29.29;100818.75;6141206;28;20257;-51
2021/04/28 08:38:38;;;;;;;7.40;4.70;;;;;;;14.31;28.14;100824.06;6137349;28;20222;-52
2021/04/28 08:41:59;;;;;;;6.53;5.17;;;;;;;14.43;27.33;100814.19;6139884;28;20325;-49
2021/04/28 08:45:20;;;;;;;5.13;4.53;;;;;;;14.26;27.90;100823.31;6134107;28;20242;-51
2021/04/28 08:48:40;;;;;;;7.20;5.10;;;;;;;13.83;27.51;100826.09;6138549;28;20622;-54
2021/04/28 08:52:01;;;;;;;6.20;5.70;;;;;;;14.34;27.49;100818.75;6135407;28;20259;-52
2021/04/28 08:55:23;;;;;;;6.57;5.13;;;;;;;14.29;26.70;100815.41;6138984;28;20243;-53
2021/04/28 08:58:43;;;;;;;6.00;4.90;;;;;;;14.51;26.49;100807.00;6135661;28;20322;-48
2021/04/28 09:02:21;;;;;;;5.47;4.23;;;;;;;14.75;26.16;100795.03;6135101;28;20223;-51
2021/04/28 09:05:43;;;;;;;7.33;5.43;;;;;;;14.86;25.78;100802.63;6116976;28;20243;-49
2021/04/28 09:09:06;;;;;;;7.60;5.50;;;;;;;14.79;25.39;100791.44;6131645;28;20310;-52
2021/04/28 09:12:27;;;;;;;7.57;5.20;;;;;;;14.99;25.86;100798.78;6138999;28;20230;-52
2021/04/28 09:15:49;;;;;;;5.03;4.53;;;;;;;14.82;24.44;100793.13;6136391;28;20268;-53
2021/04/28 09:19:22;;;;;;;6.77;4.93;;;;;;;15.19;24.33;100789.47;6149944;28;20238;-50
2021/04/28 09:23:07;;;;;;;6.13;4.67;;;;;;;14.47;24.07;100792.25;6127169;28;20255;-49
2021/04/28 09:27:25;;;;;;;6.10;4.00;;;;;;;15.04;24.73;100796.00;6108623;29;20286;-53
2021/04/28 09:31:16;;;;;;;4.90;4.40;;;;;;;15.23;24.17;100783.25;6117306;28;20234;-55
2021/04/28 09:34:39;;;;;;;6.83;4.30;;;;;;;15.23;23.53;100772.75;6135904;28;20235;-53
2021/04/28 09:38:02;;;;;;;7.57;4.63;;;;;;;15.10;24.12;100766.97;6132248;28;20560;-53
2021/04/28 09:41:34;;;;;;;6.23;4.93;;;;;;;15.32;24.86;100775.09;6137630;28;20231;-53
2021/04/28 09:44:54;;;;;;;5.23;3.73;;;;;;;15.45;28.30;100767.72;6133463;28;20222;-53
2021/04/28 09:48:18;;;;;;;4.03;3.70;;;;;;;16.40;36.27;100769.09;6126713;28;20514;-56
2021/04/28 09:51:40;;;;;;;5.77;4.80;;;;;;;15.96;25.29;100755.69;6132033;28;20235;-53
2021/04/28 09:55:02;;;;;;;5.33;4.90;;;;;;;16.11;23.17;100748.16;6135640;28;20227;-52
2021/04/28 09:58:47;;;;;;;6.33;5.60;;;;;;;16.16;23.15;100744.53;6136895;28;20255;-51
2021/04/28 10:02:08;;;;;;;5.07;3.97;;;;;;;16.46;23.00;100734.72;6138136;28;20239;-57
2021/04/28 10:05:30;;;;;;;5.27;4.40;;;;;;;16.49;23.52;100732.84;6132849;28;20234;-55
2021/04/28 10:08:51;;;;;;;5.97;4.83;;;;;;;16.20;23.13;100735.63;6135732;28;20231;-56
2021/04/28 10:12:13;;;;;;;5.83;5.00;;;;;;;15.93;23.42;100741.72;6132247;28;20609;-58
2021/04/28 10:15:35;;;;;;;9.03;6.17;;;;;;;16.12;23.93;100717.50;6136617;28;20247;-57
2021/04/28 10:18:55;;;;;;;7.77;4.87;;;;;;;16.44;23.54;100718.13;6137118;28;20384;-55
2021/04/28 10:22:19;;;;;;;7.10;5.27;;;;;;;16.40;23.67;100717.41;6136340;28;20304;-56
2021/04/28 10:25:42;;;;;;;6.90;5.27;;;;;;;16.58;24.09;100700.13;6136962;28;20259;-58
2021/04/28 10:29:03;;;;;;;6.17;5.17;;;;;;;16.91;23.40;100698.06;6131377;28;20246;-56
2021/04/28 10:32:24;;;;;;;7.93;5.27;;;;;;;17.18;23.56;100699.72;6129002;28;20230;-54
2021/04/28 10:35:45;;;;;;;6.33;4.83;;;;;;;17.55;23.40;100698.28;6126750;28;20246;-55
2021/04/28 10:39:06;;;;;;;6.53;5.77;;;;;;;17.36;23.08;100688.47;6135071;28;20243;-56
2021/04/28 10:42:31;;;;;;;5.80;5.30;;;;;;;17.32;22.38;100692.13;6135196;28;20231;-57
2021/04/28 10:45:51;;;;;;;7.50;6.30;;;;;;;17.62;22.79;100683.94;6132487;28;20240;-56
2021/04/28 10:49:16;;;;;;;6.93;5.40;;;;;;;17.65;22.89;100686.44;6133324;28;20231;-58
2021/04/28 10:52:42;;;;;;;8.87;8.17;;;;;;;18.15;22.83;100686.16;6135412;28;20261;-58
2021/04/28 10:56:09;;;;;;;6.80;6.10;;;;;;;17.68;22.60;100683.69;6134540;28;20605;-58
2021/04/28 10:59:35;;;;;;;6.47;5.87;;;;;;;17.88;22.03;100670.59;6142300;28;20223;-55
2021/04/28 11:02:56;;;;;;;7.60;6.60;;;;;;;18.46;23.06;100663.75;6137653;28;20609;-57
2021/04/28 11:06:36;;;;;;;8.20;6.50;;;;;;;18.34;22.84;100675.69;6140540;28;20613;-54
2021/04/28 11:10:24;;;;;;;6.33;5.83;;;;;;;18.77;22.70;100665.00;6136093;28;20238;-54
2021/04/28 11:14:05;;;;;;;7.07;6.43;;;;;;;18.53;22.02;100659.03;6137858;28;20298;-56
2021/04/28 11:17:30;;;;;;;9.43;6.57;;;;;;;19.46;22.09;100649.44;6135649;28;20235;-57
2021/04/28 11:21:09;;;;;;;7.07;6.37;;;;;;;19.73;21.32;100651.66;6136657;28;20733;-55
2021/04/28 11:24:50;;;;;;;6.73;5.90;;;;;;;20.09;21.51;100641.97;6136956;28;20232;-53
2021/04/28 11:28:10;;;;;;;6.53;5.83;;;;;;;20.01;22.05;100650.28;6136733;28;20322;-54
2021/04/28 11:31:45;;;;;;;6.83;5.70;;;;;;;20.24;21.25;100647.31;6129246;28;20287;-51
2021/04/28 11:35:13;;;;;;;7.80;7.00;;;;;;;20.05;21.00;100638.63;6130635;28;20227;-59
2021/04/28 11:38:35;;;;;;;7.93;7.03;;;;;;;19.71;21.19;100647.38;6137026;28;20239;-51
2021/04/28 11:42:03;;;;;;;7.47;6.77;;;;;;;19.13;20.71;100648.41;6135845;28;20735;-56
2021/04/28 11:45:31;;;;;;;6.77;6.13;;;;;;;20.33;21.85;100629.25;6125209;28;20521;-57
2021/04/28 11:48:53;;;;;;;8.57;6.63;;;;;;;20.93;20.39;100626.91;6134471;28;20591;-51
2021/04/28 11:52:16;;;;;;;6.73;6.13;;;;;;;21.29;19.70;100625.78;6132439;28;21699;-58
2021/04/28 11:55:39;;;;;;;7.05;6.40;;;;;;;21.01;18.76;100614.13;6135121;28;20227;-56
2021/04/28 11:59:00;;;;;;;8.13;7.32;;;;;;;20.06;19.53;100611.25;6130457;28;20231;-53
2021/04/28 12:02:25;;;;;;;10.00;6.90;;;;;;;19.80;21.00;100615.25;6146893;28;20239;-49
2021/04/28 12:05:45;;;;;;;7.95;7.15;;;;;;;21.23;19.88;100599.66;6129728;28;20364;-55
2021/04/28 12:09:28;;;;;;;7.80;6.82;;;;;;;24.78;15.36;100592.00;6134531;28;20227;-53
2021/04/28 12:12:49;;;;;;;9.45;8.55;;;;;;;26.29;13.71;100586.03;6136787;28;20323;-53
2021/04/28 12:16:09;;;;;;;9.63;8.38;;;;;;;28.87;12.63;100584.94;6134936;28;20251;-54
2021/04/28 12:19:29;;;;;;;7.07;6.43;;;;;;;29.78;12.15;100587.41;6135682;28;20223;-54
2021/04/28 12:22:50;;;;;;;8.98;8.15;;;;;;;28.82;12.05;100581.81;6121020;28;20242;-51
2021/04/28 12:26:11;;;;;;;7.97;7.28;;;;;;;28.92;11.34;100579.16;6134959;28;20322;-54
2021/04/28 12:29:32;;;;;;;9.07;8.18;;;;;;;28.96;12.03;100564.47;6118036;28;20265;-53
2021/04/28 12:32:54;;;;;;;9.43;8.57;;;;;;;28.02;12.01;100573.59;6132674;28;20231;-54
2021/04/28 12:36:25;;;;;;;10.15;9.15;;;;;;;29.84;10.90;100559.97;6130764;28;20235;-54
2021/04/28 12:39:51;;;;;;;9.38;8.55;;;;;;;28.19;11.70;100557.88;6133013;28;20246;-52
2021/04/28 12:43:15;;;;;;;10.77;7.45;;;;;;;29.01;11.63;100556.88;6132244;28;20258;-51
2021/04/28 12:46:36;;;;;;;11.23;8.95;;;;;;;26.15;12.86;100567.56;6127286;28;20239;-54
2021/04/28 12:50:07;;;;;;;8.35;7.57;;;;;;;30.54;11.40;100556.91;6130932;28;20231;-56
2021/04/28 12:53:27;;;;;;;11.73;10.65;;;;;;;30.88;10.35;100543.63;6131505;28;20235;-54
2021/04/28 12:56:48;;;;;;;9.68;8.77;;;;;;;30.10;11.22;100537.84;6130036;28;20577;-56
2021/04/28 13:00:11;;;;;;;9.00;8.10;;;;;;;29.24;11.71;100547.59;6134419;28;20239;-56
2021/04/28 13:03:33;;;;;;;9.07;8.20;;;;;;;30.58;10.27;100539.47;6136466;28;20235;-52
2021/04/28 13:07:12;;;;;;;7.57;6.88;;;;;;;29.33;11.30;100534.31;6133098;28;20227;-53
2021/04/28 13:10:33;;;;;;;9.45;8.63;;;;;;;30.95;10.64;100527.78;6135314;28;20565;-54
2021/04/28 13:14:01;;;;;;;9.20;8.40;;;;;;;30.17;10.79;100531.72;6131952;28;20232;-55
2021/04/28 13:17:23;;;;;;;8.77;7.75;;;;;;;28.89;11.79;100520.44;6139620;28;20233;-53
2021/04/28 13:20:44;;;;;;;9.40;8.43;;;;;;;26.97;11.73;100527.16;6130346;28;20235;-54
2021/04/28 13:24:10;;;;;;;9.32;8.43;;;;;;;26.86;12.36;100526.25;6129396;28;20259;-54
2021/04/28 13:27:31;;;;;;;9.65;8.15;;;;;;;29.03;11.58;100517.38;6130405;28;20227;-56
2021/04/28 13:30:51;;;;;;;8.05;7.25;;;;;;;30.15;11.01;100500.66;6129796;28;20641;-65
2021/04/28 13:34:26;;;;;;;10.77;8.55;;;;;;;27.70;12.60;100506.78;6133494;28;20230;-69
2021/04/28 13:38:01;;;;;;;10.73;8.90;;;;;;;28.93;11.57;100500.47;6132448;28;20230;-70
2021/04/28 13:41:22;;;;;;;9.00;8.10;;;;;;;26.09;14.74;100500.41;6133139;28;20275;-70
2021/04/28 13:44:43;;;;;;;8.45;7.65;;;;;;;28.02;13.25;100501.34;6134365;28;20311;-68
2021/04/28 13:48:05;;;;;;;9.35;7.47;;;;;;;28.60;13.70;100503.38;6139937;28;20242;-72
2021/04/28 13:51:32;;;;;;;7.57;6.88;;;;;;;28.27;12.98;100505.38;6134706;28;20617;-71
2021/04/28 13:54:52;;;;;;;7.57;6.93;;;;;;;28.85;13.34;100498.47;6126375;28;20238;-70
2021/04/28 13:58:13;;;;;;;9.30;8.15;;;;;;;26.49;13.05;100491.00;6125806;28;20243;-71
2021/04/28 14:01:34;;;;;;;13.07;9.40;;;;;;;25.10;15.04;100493.72;6132605;28;20546;-71
2021/04/28 14:04:55;;;;;;;8.57;7.80;;;;;;;24.45;16.03;100492.28;6134143;28;20230;-69
2021/04/28 14:08:18;;;;;;;9.25;8.45;;;;;;;25.65;15.24;100480.69;6127976;28;20262;-67
2021/04/28 14:11:42;;;;;;;10.95;8.60;;;;;;;25.11;16.66;100474.13;6138120;28;20628;-67
2021/04/28 14:15:04;;;;;;;8.93;8.02;;;;;;;24.57;17.12;100485.25;6130402;28;20243;-69
2021/04/28 14:18:25;;;;;;;9.93;9.10;;;;;;;24.08;16.88;100470.09;6136920;28;20250;-67
2021/04/28 14:21:46;;;;;;;10.23;9.00;;;;;;;23.19;17.41;100467.31;6133748;28;20680;-68
2021/04/28 14:25:09;;;;;;;8.10;7.40;;;;;;;23.19;17.41;100467.31;6128764;28;20235;-68
2021/04/28 14:28:29;;;;;;;10.07;7.70;;;;;;;26.18;14.98;100458.78;6136370;28;20528;-73
2021/04/28 14:31:50;;;;;;;9.90;8.88;;;;;;;23.76;16.99;100460.75;6116298;28;20227;-72
2021/04/28 14:35:12;;;;;;;12.63;8.27;;;;;;;23.84;17.43;100451.44;6134307;28;20317;-56
2021/04/28 14:38:33;;;;;;;11.45;8.43;;;;;;;23.68;17.46;100441.84;6138194;28;20692;-52
2021/04/28 14:41:54;;;;;;;9.23;7.68;;;;;;;24.80;16.38;100443.63;6142851;28;20326;-49
2021/04/28 14:45:17;;;;;;;10.75;8.73;;;;;;;24.16;16.58;100438.50;6138666;28;20716;-50
2021/04/28 14:48:37;;;;;;;8.43;7.65;;;;;;;23.50;17.63;100427.19;6140654;28;20275;-54
2021/04/28 14:51:57;;;;;;;10.15;9.07;;;;;;;23.37;17.43;100425.38;6142777;28;20231;-52
2021/04/28 14:55:18;;;;;;;9.50;8.60;;;;;;;21.86;18.14;100428.16;6139226;28;20239;-50
2021/04/28 14:58:42;;;;;;;8.80;7.93;;;;;;;21.01;19.38;100420.88;6141196;28;20224;-52
2021/04/28 15:02:03;;;;;;;9.07;7.45;;;;;;;22.92;18.47;100403.63;6138831;28;20321;-54
2021/04/28 15:05:23;;;;;;;7.85;7.05;;;;;;;23.57;18.06;100400.09;6141949;28;20239;-53
2021/04/28 15:08:44;;;;;;;7.28;6.57;;;;;;;23.74;17.45;100390.06;6145205;28;20247;-52
2021/04/28 15:12:05;;;;;;;7.45;6.75;;;;;;;23.75;17.68;100391.78;6143970;28;20602;-56
2021/04/28 15:15:26;;;;;;;6.97;6.28;;;;;;;24.22;17.70;100397.31;6136594;28;20227;-53
2021/04/28 15:18:47;;;;;;;6.85;6.15;;;;;;;24.73;16.52;100389.13;6142464;28;20238;-51
2021/04/28 15:22:07;;;;;;;8.63;7.75;;;;;;;24.44;16.84;100392.09;6139946;28;20255;-53
2021/04/28 15:25:28;;;;;;;9.75;8.25;;;;;;;24.41;17.21;100386.16;6142027;28;20228;-51
2021/04/28 15:28:49;;;;;;;8.68;7.53;;;;;;;23.44;17.46;100385.09;6132729;28;20258;-54
2021/04/28 15:32:13;;;;;;;8.90;6.90;;;;;;;23.00;18.57;100385.34;6138776;28;20235;-50
2021/04/28 15:35:33;;;;;;;7.13;6.53;;;;;;;22.82;19.11;100383.97;6139452;28;20231;-54
2021/04/28 15:38:54;;;;;;;7.82;7.05;;;;;;;22.29;19.58;100388.34;6133655;28;20656;-52
2021/04/28 15:42:15;;;;;;;10.48;7.32;;;;;;;22.90;19.52;100384.28;6130862;28;20557;-54
2021/04/28 15:45:38;;;;;;;8.77;7.75;;;;;;;22.19;20.51;100391.56;6131842;28;20239;-49
2021/04/28 15:48:59;;;;;;;8.02;6.28;;;;;;;21.75;22.09;100384.66;6138256;28;20464;-53
2021/04/28 15:52:20;;;;;;;10.02;7.65;;;;;;;21.20;23.18;100382.69;6132239;28;20235;-51